Stone, United Kingdom
Current Conditions -  °F | °C
As of 4:50 AM on Wednesday 26 Nov 2014 (Local Time) from EGOS Reporting Station
Drizzle Drizzle  
Wind Chill: 39°   Ceiling: 700
Heat Index: 43°   Visibility: 1.5mi
Dew Point: 41°   Wind: 6mph
Humidity: 93%   Direction: 350°N
Pressure: 29.94"   Gusts: NA
Location:  52.91°N, 2.15°W
Report Text: EGOS 260450Z AUTO 35005KT 2400 -DZ OVC007/// 06/05 Q1014
Loading
Personal Weather Stations






























Interactive Weather Map New forecast layout! Learn more

10-Day Weather Forecast

Advertisements
Track Severe Weather on mobile